< < Back
Terminal Aerodrome Forecast


Current Version              Previous Versions:   1  2  3  4  5  6  7  8  9  

Terminal Aerodrome Forecast

991
FTUS42 KMLB 240900 AAB
TAFMCO
TAF AMD
KMCO 240917Z 2409/2506 18010KT P6SM OVC007
      TEMPO 2411/2413 OVC005
     FM241400 20010KT P6SM BKN015
     FM241700 21012KT P6SM BKN035
     FM250100 19004KT P6SM SCT040 BKN250=



Latest METAR

537
SAUS70 KWBC 240900 RRP
MTRMCO
METAR KMCO 240853Z 18010KT 9SM OVC007 24/23 A2993 RMK AO2 SLP132
T02390233 53000 $


USA.gov is the U.S. government's official web portal to all federal, state and local government web resources and services.